Airfield :
LOGIN :

Register | Disclaimer

   EN    FR    IT 

 










Legend :    VFR   Marginal VFR   IFR   Intensive IFR   Very Intensive IFR
Visi :
Ceiling :
>= 8 km
>= 3000ft
5 to 8 km
1000 to 3000 ft
1500m to 5 km
500 to 1000 ft
800 to 1500m
200 to 500 ft
< 800m
< 200 ft
Symbols :   Thunderstorms  Fog  Heavy snow  Heavy precipitations  Wind > 20 kt
SIGMETs :     Misc.  Thunderstorms  Icing  Turbulence  Mountain Waves  Volcanic Ashes







- Airport Elevation : 238 ft
- IATA code : FAB
- Download approach charts


EGLF - Farnborough

CURRENT METAR :
  • 231850Z VRB02KT CAVOK 07/04 Q1033

EXPIRED METARs :
  • 231820Z VRB03KT CAVOK 08/05 Q1033
  • 231750Z 18004KT 140V210 CAVOK 11/05 Q1033
  • 231720Z 13007KT CAVOK 12/06 Q1032
  • 231650Z 13007KT 100V160 CAVOK 14/06 Q1032
  • 231620Z 14008KT CAVOK 14/06 Q1032

TAF TAF EGLF
Valid from the 23 at 18:00 until the 23 at 20:00 UTC


231657Z 2318/2320 15005KT CAVOK
PROB30 2318/2320 8000
ATIS : +44 09063 800 400 (*282)
No reported NOTAMs for that airfield.



MET'MAP, your aeronautical weather chart ! - Copyright ORBIFLY December 2007 - Disclaimer

ORBIFLY MET'MAP TEAM :

Programming & Development : Alexandra Zaïnal
Concept & Development : Baudouin d'Aumeries
Co-Development & Prog : Marc-Olivier Méhu
Technical & hardware support : Manuel Goepfert

Contact : metmap@orbifly.com




SOURCES & CREDITS :

   NOAA